PWSweather.com
Personal Weather Stations
Station Observations
PRATO
PratoIT 59100

PratoIT 59100

Lat: 43.8956799, Lon: 11.0845155

Elevation: 164

Station Type: Davis Vantage Vue

http://www.meteoprato.it

High Low Average
Temperature 45.0°F7.2°F 37.3°F2.9°F 41.2°F5.1°F
Dew Point 36.1°F2.3°F 30.5°F-0.8°F 33.4°F0.8°F
Winds 21.5 mph NE34.6 mph NE 9.9 mph 15.9 mph 16.4 mph 26.4 mph
Wind Gusts 39.0 mph62.8 mph 21.0 mph33.8 mph 29.4 mph47.3 mph
Humidity 92% 60% 74%
Pressure 29.65 in1004.10 in 29.58 in1001.70 in -
Precipitation 4.17 in105.90 in - -
Hour Temp Dew Point Humidity Winds Wind Gusts Pressure Precip Precip Rate Daily Precip Total
12:00 AM 38.5°F3.6°C 35.0°F1.7°C 87% 15.4 mph NE24.8 kmh NE 26.0 mph41.8 kmh 29.64 in1003.7 mb 0.06 in1.5 mm 0.00 in0.0 mm 0.06 in1.5 mm
12:05 AM 38.4°F3.6°C 35.2°F1.8°C 88% 15.6 mph NE25.1 kmh NE 29.0 mph46.7 kmh 29.64 in1003.7 mb 0.06 in1.5 mm 0.00 in0.0 mm 0.06 in1.5 mm
12:10 AM 38.5°F3.6°C 35.0°F1.7°C 87% 15.1 mph NE24.3 kmh NE 29.0 mph46.7 kmh 29.64 in1003.7 mb 0.06 in1.5 mm 0.00 in0.0 mm 0.01 in0.3 mm
12:15 AM 38.4°F3.6°C 34.9°F1.6°C 87% 15.2 mph NE24.5 kmh NE 26.0 mph41.8 kmh 29.63 in1003.4 mb 0.06 in1.5 mm 0.00 in0.0 mm 0.01 in0.3 mm
12:20 AM 38.4°F3.6°C 35.2°F1.8°C 88% 15.8 mph NE25.4 kmh NE 29.0 mph46.7 kmh 29.63 in1003.4 mb 0.06 in1.5 mm 0.00 in0.0 mm 0.02 in0.5 mm
12:25 AM 38.4°F3.6°C 35.2°F1.8°C 88% 16.0 mph NE25.7 kmh NE 29.0 mph46.7 kmh 29.63 in1003.4 mb 0.06 in1.5 mm 0.00 in0.0 mm 0.02 in0.5 mm
12:30 AM 38.3°F3.5°C 35.1°F1.7°C 88% 16.3 mph NE26.2 kmh NE 28.0 mph45.1 kmh 29.64 in1003.7 mb 0.06 in1.5 mm 0.00 in0.0 mm 0.02 in0.5 mm
12:35 AM 38.3°F3.5°C 35.1°F1.7°C 88% 16.1 mph NE25.9 kmh NE 28.0 mph45.1 kmh 29.63 in1003.4 mb 0.06 in1.5 mm 0.00 in0.0 mm 0.03 in0.8 mm
12:40 AM 38.3°F3.5°C 35.1°F1.7°C 88% 14.8 mph NE23.8 kmh NE 28.0 mph45.1 kmh 29.63 in1003.4 mb 0.06 in1.5 mm 0.00 in0.0 mm 0.04 in1.0 mm
12:45 AM 38.3°F3.5°C 35.1°F1.7°C 88% 14.0 mph NE22.5 kmh NE 25.0 mph40.2 kmh 29.63 in1003.4 mb 0.06 in1.5 mm 0.00 in0.0 mm 0.05 in1.3 mm
12:50 AM 38.3°F3.5°C 35.1°F1.7°C 88% 14.4 mph NE23.2 kmh NE 27.0 mph43.5 kmh 29.63 in1003.4 mb 0.07 in1.8 mm 0.12 in3.0 mm 0.06 in1.5 mm
12:55 AM 38.2°F3.4°C 35.0°F1.7°C 88% 15.1 mph NE24.3 kmh NE 27.0 mph43.5 kmh 29.63 in1003.4 mb 0.06 in1.5 mm 0.00 in0.0 mm 0.06 in1.5 mm
01:00 AM 38.1°F3.4°C 34.9°F1.6°C 88% 16.1 mph NE25.9 kmh NE 29.0 mph46.7 kmh 29.63 in1003.4 mb 0.06 in1.5 mm 0.00 in0.0 mm 0.06 in1.5 mm
01:05 AM 38.0°F3.3°C 34.8°F1.6°C 88% 16.8 mph NE27.0 kmh NE 30.0 mph48.3 kmh 29.63 in1003.4 mb 0.07 in1.8 mm 0.12 in3.0 mm 0.07 in1.8 mm
01:10 AM 38.1°F3.4°C 34.9°F1.6°C 88% 17.1 mph NE27.5 kmh NE 33.0 mph53.1 kmh 29.63 in1003.4 mb 0.06 in1.5 mm 0.00 in0.0 mm 0.07 in1.8 mm
01:15 AM 38.1°F3.4°C 35.1°F1.7°C 89% 17.7 mph NE28.5 kmh NE 33.0 mph53.1 kmh 29.63 in1003.4 mb 0.07 in1.8 mm 0.12 in3.0 mm 0.08 in2.0 mm
01:20 AM 38.1°F3.4°C 35.1°F1.7°C 89% 19.0 mph NE30.6 kmh NE 32.0 mph51.5 kmh 29.62 in1003.0 mb 0.06 in1.5 mm 0.00 in0.0 mm 0.08 in2.0 mm
01:25 AM 37.9°F3.3°C 34.9°F1.6°C 89% 19.5 mph NE31.4 kmh NE 32.0 mph51.5 kmh 29.62 in1003.0 mb 0.07 in1.8 mm 0.12 in3.0 mm 0.09 in2.3 mm
01:30 AM 37.9°F3.3°C 35.2°F1.8°C 90% 18.6 mph NE29.9 kmh NE 29.0 mph46.7 kmh 29.62 in1003.0 mb 0.07 in1.8 mm 0.00 in0.0 mm 0.09 in2.3 mm
01:35 AM 37.8°F3.2°C 35.1°F1.7°C 90% 18.4 mph NE29.6 kmh NE 37.0 mph59.5 kmh 29.61 in1002.7 mb 0.07 in1.8 mm 0.00 in0.0 mm 0.10 in2.5 mm
01:40 AM 37.6°F3.1°C 35.2°F1.8°C 91% 20.3 mph NE32.7 kmh NE 37.0 mph59.5 kmh 29.61 in1002.7 mb 0.06 in1.5 mm 0.00 in0.0 mm 0.10 in2.5 mm
01:45 AM 37.5°F3.1°C 35.4°F1.9°C 92% 21.5 mph NE34.6 kmh NE 32.0 mph51.5 kmh 29.61 in1002.7 mb 0.06 in1.5 mm 0.00 in0.0 mm 0.11 in2.8 mm
01:50 AM 37.4°F3.0°C 35.0°F1.7°C 91% 20.1 mph NE32.3 kmh NE 30.0 mph48.3 kmh 29.61 in1002.7 mb 0.06 in1.5 mm 0.00 in0.0 mm 0.11 in2.8 mm
01:55 AM 37.4°F3.0°C 35.0°F1.7°C 91% 18.7 mph NE30.1 kmh NE 31.0 mph49.9 kmh 29.61 in1002.7 mb 0.06 in1.5 mm 0.00 in0.0 mm 0.12 in3.0 mm
02:00 AM 37.3°F2.9°C 34.9°F1.6°C 91% 18.4 mph NE29.6 kmh NE 31.0 mph49.9 kmh 29.61 in1002.7 mb 0.06 in1.5 mm 0.00 in0.0 mm 0.12 in3.0 mm
02:05 AM 37.4°F3.0°C 35.0°F1.7°C 91% 19.0 mph NE30.6 kmh NE 32.0 mph51.5 kmh 29.61 in1002.7 mb 0.05 in1.3 mm 0.00 in0.0 mm 0.12 in3.0 mm
02:10 AM 37.4°F3.0°C 35.0°F1.7°C 91% 20.1 mph NE32.3 kmh NE 36.0 mph57.9 kmh 29.61 in1002.7 mb 0.06 in1.5 mm 0.12 in3.0 mm 0.13 in3.3 mm
02:15 AM 37.6°F3.1°C 34.9°F1.6°C 90% 20.8 mph NE33.5 kmh NE 36.0 mph57.9 kmh 29.61 in1002.7 mb 0.05 in1.3 mm 0.00 in0.0 mm 0.13 in3.3 mm
02:20 AM 37.6°F3.1°C 34.9°F1.6°C 90% 21.0 mph NE33.8 kmh NE 32.0 mph51.5 kmh 29.61 in1002.7 mb 0.05 in1.3 mm 0.00 in0.0 mm 0.13 in3.3 mm
02:25 AM 37.7°F3.2°C 35.0°F1.7°C 90% 20.6 mph NE33.2 kmh NE 32.0 mph51.5 kmh 29.61 in1002.7 mb 0.04 in1.0 mm 0.00 in0.0 mm 0.13 in3.3 mm
02:30 AM 37.6°F3.1°C 34.9°F1.6°C 90% 19.0 mph NE30.6 kmh NE 28.0 mph45.1 kmh 29.61 in1002.7 mb 0.03 in0.8 mm 0.00 in0.0 mm 0.13 in3.3 mm
02:35 AM 37.7°F3.2°C 35.0°F1.7°C 90% 16.5 mph NE26.6 kmh NE 28.0 mph45.1 kmh 29.61 in1002.7 mb 0.03 in0.8 mm 0.00 in0.0 mm 0.13 in3.3 mm
02:40 AM 37.8°F3.2°C 35.1°F1.7°C 90% 14.6 mph NE23.5 kmh NE 28.0 mph45.1 kmh 29.61 in1002.7 mb 0.03 in0.8 mm 0.00 in0.0 mm 0.13 in3.3 mm
02:45 AM 37.9°F3.3°C 34.9°F1.6°C 89% 14.7 mph NE23.7 kmh NE 39.0 mph62.8 kmh 29.61 in1002.7 mb 0.02 in0.5 mm 0.00 in0.0 mm 0.13 in3.3 mm
02:50 AM 38.0°F3.3°C 34.8°F1.6°C 88% 16.0 mph NE25.7 kmh NE 39.0 mph62.8 kmh 29.60 in1002.4 mb 0.02 in0.5 mm 0.00 in0.0 mm 0.13 in3.3 mm
02:55 AM 38.2°F3.4°C 35.0°F1.7°C 88% 16.8 mph NE27.0 kmh NE 26.0 mph41.8 kmh 29.60 in1002.4 mb 0.02 in0.5 mm 0.00 in0.0 mm 0.13 in3.3 mm
03:00 AM 38.3°F3.5°C 34.8°F1.6°C 87% 16.5 mph NE26.6 kmh NE 25.0 mph40.2 kmh 29.60 in1002.4 mb 0.02 in0.5 mm 0.00 in0.0 mm 0.13 in3.3 mm
03:05 AM 38.5°F3.6°C 34.7°F1.5°C 86% 16.0 mph NE25.7 kmh NE 28.0 mph45.1 kmh 29.60 in1002.4 mb 0.02 in0.5 mm 0.00 in0.0 mm 0.13 in3.3 mm
03:10 AM 38.7°F3.7°C 34.9°F1.6°C 86% 16.5 mph NE26.6 kmh NE 28.0 mph45.1 kmh 29.60 in1002.4 mb 0.01 in0.3 mm 0.00 in0.0 mm 0.13 in3.3 mm
03:15 AM 39.1°F3.9°C 34.4°F1.3°C 83% 17.0 mph NE27.4 kmh NE 26.0 mph41.8 kmh 29.59 in1002.0 mb 0.01 in0.3 mm 0.00 in0.0 mm 0.13 in3.3 mm
03:20 AM 39.4°F4.1°C 34.4°F1.3°C 82% 17.0 mph NE27.4 kmh NE 29.0 mph46.7 kmh 29.60 in1002.4 mb 0.01 in0.3 mm 0.00 in0.0 mm 0.13 in3.3 mm
03:25 AM 39.6°F4.2°C 34.2°F1.2°C 81% 16.6 mph NE26.7 kmh NE 29.0 mph46.7 kmh 29.59 in1002.0 mb 0.01 in0.3 mm 0.00 in0.0 mm 0.13 in3.3 mm
03:30 AM 39.7°F4.3°C 33.7°F0.9°C 79% 15.7 mph NE25.3 kmh NE 26.0 mph41.8 kmh 29.60 in1002.4 mb 0.01 in0.3 mm 0.00 in0.0 mm 0.13 in3.3 mm
03:35 AM 39.9°F4.4°C 33.6°F0.9°C 78% 15.6 mph NE25.1 kmh NE 25.0 mph40.2 kmh 29.59 in1002.0 mb 0.00 in0.0 mm 0.00 in0.0 mm 0.13 in3.3 mm
03:40 AM 40.2°F4.6°C 33.2°F0.7°C 76% 15.9 mph NE25.6 kmh NE 29.0 mph46.7 kmh 29.60 in1002.4 mb 0.00 in0.0 mm 0.00 in0.0 mm 0.13 in3.3 mm
03:45 AM 40.3°F4.6°C 33.0°F0.6°C 75% 16.0 mph NE25.7 kmh NE 29.0 mph46.7 kmh 29.59 in1002.0 mb 0.00 in0.0 mm 0.00 in0.0 mm 0.13 in3.3 mm
03:50 AM 40.2°F4.6°C 32.9°F0.5°C 75% 16.3 mph NE26.2 kmh NE 27.0 mph43.5 kmh 29.59 in1002.0 mb 0.00 in0.0 mm 0.00 in0.0 mm 0.13 in3.3 mm
03:55 AM 40.2°F4.6°C 32.6°F0.3°C 74% 16.6 mph NE26.7 kmh NE 26.0 mph41.8 kmh 29.59 in1002.0 mb 0.00 in0.0 mm 0.00 in0.0 mm 0.13 in3.3 mm
04:00 AM 40.4°F4.7°C 32.4°F0.2°C 73% 16.9 mph NE27.2 kmh NE 28.0 mph45.1 kmh 29.59 in1002.0 mb 0.00 in0.0 mm 0.00 in0.0 mm 0.13 in3.3 mm
04:05 AM 40.4°F4.7°C 32.4°F0.2°C 73% 17.0 mph NE27.4 kmh NE 28.0 mph45.1 kmh 29.59 in1002.0 mb 0.00 in0.0 mm 0.00 in0.0 mm 0.13 in3.3 mm
04:10 AM 40.5°F4.7°C 32.2°F0.1°C 72% 17.0 mph NE27.4 kmh NE 27.0 mph43.5 kmh 29.59 in1002.0 mb 0.00 in0.0 mm 0.00 in0.0 mm 0.13 in3.3 mm
04:15 AM 40.5°F4.7°C 32.2°F0.1°C 72% 17.0 mph NE27.4 kmh NE 28.0 mph45.1 kmh 29.59 in1002.0 mb 0.00 in0.0 mm 0.00 in0.0 mm 0.13 in3.3 mm
04:20 AM 40.5°F4.7°C 32.2°F0.1°C 72% 17.0 mph NE27.4 kmh NE 28.0 mph45.1 kmh 29.59 in1002.0 mb 0.00 in0.0 mm 0.00 in0.0 mm 0.13 in3.3 mm
04:25 AM 40.5°F4.7°C 32.2°F0.1°C 72% 16.8 mph NE27.0 kmh NE 26.0 mph41.8 kmh 29.59 in1002.0 mb 0.00 in0.0 mm 0.00 in0.0 mm 0.13 in3.3 mm
04:30 AM 40.7°F4.8°C 32.0°F0.0°C 71% 16.7 mph NE26.9 kmh NE 28.0 mph45.1 kmh 29.59 in1002.0 mb 0.00 in0.0 mm 0.00 in0.0 mm 0.13 in3.3 mm
04:35 AM 40.8°F4.9°C 32.1°F0.1°C 71% 16.6 mph NE26.7 kmh NE 28.0 mph45.1 kmh 29.59 in1002.0 mb 0.00 in0.0 mm 0.00 in0.0 mm 0.13 in3.3 mm
04:40 AM 40.8°F4.9°C 32.1°F0.1°C 71% 16.1 mph NE25.9 kmh NE 25.0 mph40.2 kmh 29.59 in1002.0 mb 0.00 in0.0 mm 0.00 in0.0 mm 0.13 in3.3 mm
04:45 AM 40.8°F4.9°C 32.1°F0.1°C 71% 15.8 mph NE25.4 kmh NE 25.0 mph40.2 kmh 29.59 in1002.0 mb 0.00 in0.0 mm 0.00 in0.0 mm 0.13 in3.3 mm
04:50 AM 40.7°F4.8°C 31.7°F-0.2°C 70% 15.8 mph NE25.4 kmh NE 26.0 mph41.8 kmh 29.60 in1002.4 mb 0.00 in0.0 mm 0.00 in0.0 mm 0.13 in3.3 mm
04:55 AM 40.7°F4.8°C 31.7°F-0.2°C 70% 15.6 mph NE25.1 kmh NE 26.0 mph41.8 kmh 29.60 in1002.4 mb 0.00 in0.0 mm 0.00 in0.0 mm 0.13 in3.3 mm
05:00 AM 40.7°F4.8°C 31.7°F-0.2°C 70% 15.7 mph NE25.3 kmh NE 25.0 mph40.2 kmh 29.60 in1002.4 mb 0.00 in0.0 mm 0.00 in0.0 mm 0.13 in3.3 mm
05:05 AM 40.7°F4.8°C 31.7°F-0.2°C 70% 16.2 mph NE26.1 kmh NE 26.0 mph41.8 kmh 29.60 in1002.4 mb 0.00 in0.0 mm 0.00 in0.0 mm 0.13 in3.3 mm
05:10 AM 40.6°F4.8°C 31.6°F-0.2°C 70% 16.4 mph NE26.4 kmh NE 26.0 mph41.8 kmh 29.61 in1002.7 mb 0.00 in0.0 mm 0.00 in0.0 mm 0.13 in3.3 mm
05:15 AM 40.7°F4.8°C 31.7°F-0.2°C 70% 15.7 mph NE25.3 kmh NE 26.0 mph41.8 kmh 29.61 in1002.7 mb 0.00 in0.0 mm 0.00 in0.0 mm 0.13 in3.3 mm
05:20 AM 40.7°F4.8°C 31.7°F-0.2°C 70% 15.1 mph NE24.3 kmh NE 26.0 mph41.8 kmh 29.60 in1002.4 mb 0.00 in0.0 mm 0.00 in0.0 mm 0.13 in3.3 mm
05:25 AM 40.7°F4.8°C 31.7°F-0.2°C 70% 15.3 mph NE24.6 kmh NE 26.0 mph41.8 kmh 29.61 in1002.7 mb 0.00 in0.0 mm 0.00 in0.0 mm 0.13 in3.3 mm
05:30 AM 40.6°F4.8°C 31.6°F-0.2°C 70% 15.8 mph NE25.4 kmh NE 26.0 mph41.8 kmh 29.60 in1002.4 mb 0.00 in0.0 mm 0.00 in0.0 mm 0.13 in3.3 mm
05:35 AM 40.7°F4.8°C 31.7°F-0.2°C 70% 16.0 mph NE25.7 kmh NE 24.0 mph38.6 kmh 29.60 in1002.4 mb 0.00 in0.0 mm 0.00 in0.0 mm 0.13 in3.3 mm
05:40 AM 40.7°F4.8°C 31.7°F-0.2°C 70% 15.6 mph NE25.1 kmh NE 26.0 mph41.8 kmh 29.61 in1002.7 mb 0.00 in0.0 mm 0.00 in0.0 mm 0.13 in3.3 mm
05:45 AM 40.7°F4.8°C 31.7°F-0.2°C 70% 15.1 mph NE24.3 kmh NE 26.0 mph41.8 kmh 29.61 in1002.7 mb 0.00 in0.0 mm 0.00 in0.0 mm 0.13 in3.3 mm
05:50 AM 40.7°F4.8°C 31.7°F-0.2°C 70% 15.1 mph NE24.3 kmh NE 27.0 mph43.5 kmh 29.60 in1002.4 mb 0.00 in0.0 mm 0.00 in0.0 mm 0.13 in3.3 mm
05:55 AM 40.8°F4.9°C 31.8°F-0.1°C 70% 15.7 mph NE25.3 kmh NE 27.0 mph43.5 kmh 29.61 in1002.7 mb 0.00 in0.0 mm 0.00 in0.0 mm 0.13 in3.3 mm
06:00 AM 40.8°F4.9°C 31.4°F-0.3°C 69% 16.1 mph NE25.9 kmh NE 27.0 mph43.5 kmh 29.61 in1002.7 mb 0.00 in0.0 mm 0.00 in0.0 mm 0.13 in3.3 mm
06:05 AM 40.8°F4.9°C 31.4°F-0.3°C 69% 15.8 mph NE25.4 kmh NE 26.0 mph41.8 kmh 29.61 in1002.7 mb 0.00 in0.0 mm 0.00 in0.0 mm 0.13 in3.3 mm
06:10 AM 40.9°F4.9°C 31.5°F-0.3°C 69% 15.4 mph NE24.8 kmh NE 28.0 mph45.1 kmh 29.61 in1002.7 mb 0.00 in0.0 mm 0.00 in0.0 mm 0.13 in3.3 mm
06:15 AM 41.0°F5.0°C 31.2°F-0.4°C 68% 15.1 mph NE24.3 kmh NE 29.0 mph46.7 kmh 29.61 in1002.7 mb 0.00 in0.0 mm 0.00 in0.0 mm 0.13 in3.3 mm
06:20 AM 40.9°F4.9°C 31.1°F-0.5°C 68% 15.3 mph NE24.6 kmh NE 29.0 mph46.7 kmh 29.61 in1002.7 mb 0.00 in0.0 mm 0.00 in0.0 mm 0.13 in3.3 mm
06:25 AM 40.9°F4.9°C 31.1°F-0.5°C 68% 15.5 mph NE24.9 kmh NE 26.0 mph41.8 kmh 29.61 in1002.7 mb 0.00 in0.0 mm 0.00 in0.0 mm 0.13 in3.3 mm
06:30 AM 40.9°F4.9°C 31.1°F-0.5°C 68% 15.7 mph NE25.3 kmh NE 31.0 mph49.9 kmh 29.61 in1002.7 mb 0.00 in0.0 mm 0.00 in0.0 mm 0.13 in3.3 mm
06:35 AM 40.9°F4.9°C 31.1°F-0.5°C 68% 16.1 mph NE25.9 kmh NE 31.0 mph49.9 kmh 29.61 in1002.7 mb 0.00 in0.0 mm 0.00 in0.0 mm 0.13 in3.3 mm
06:40 AM 40.9°F4.9°C 31.1°F-0.5°C 68% 15.7 mph NE25.3 kmh NE 23.0 mph37.0 kmh 29.61 in1002.7 mb 0.00 in0.0 mm 0.00 in0.0 mm 0.13 in3.3 mm
06:45 AM 41.0°F5.0°C 31.2°F-0.4°C 68% 14.8 mph NE23.8 kmh NE 25.0 mph40.2 kmh 29.61 in1002.7 mb 0.00 in0.0 mm 0.00 in0.0 mm 0.13 in3.3 mm
06:50 AM 41.0°F5.0°C 31.2°F-0.4°C 68% 14.9 mph NE24.0 kmh NE 25.0 mph40.2 kmh 29.62 in1003.0 mb 0.00 in0.0 mm 0.00 in0.0 mm 0.13 in3.3 mm
06:55 AM 40.9°F4.9°C 31.1°F-0.5°C 68% 15.2 mph NE24.5 kmh NE 21.0 mph33.8 kmh 29.61 in1002.7 mb 0.00 in0.0 mm 0.00 in0.0 mm 0.13 in3.3 mm
07:00 AM 41.0°F5.0°C 31.2°F-0.4°C 68% 14.5 mph NE23.3 kmh NE 27.0 mph43.5 kmh 29.61 in1002.7 mb 0.00 in0.0 mm 0.00 in0.0 mm 0.13 in3.3 mm
07:05 AM 40.9°F4.9°C 31.1°F-0.5°C 68% 14.2 mph NE22.9 kmh NE 27.0 mph43.5 kmh 29.61 in1002.7 mb 0.00 in0.0 mm 0.00 in0.0 mm 0.13 in3.3 mm
07:10 AM 41.0°F5.0°C 31.2°F-0.4°C 68% 14.8 mph NE23.8 kmh NE 24.0 mph38.6 kmh 29.62 in1003.0 mb 0.00 in0.0 mm 0.00 in0.0 mm 0.13 in3.3 mm
07:15 AM 41.0°F5.0°C 31.2°F-0.4°C 68% 15.2 mph NE24.5 kmh NE 25.0 mph40.2 kmh 29.62 in1003.0 mb 0.00 in0.0 mm 0.00 in0.0 mm 0.13 in3.3 mm
07:20 AM 41.0°F5.0°C 31.2°F-0.4°C 68% 15.0 mph NE24.1 kmh NE 25.0 mph40.2 kmh 29.62 in1003.0 mb 0.00 in0.0 mm 0.00 in0.0 mm 0.13 in3.3 mm
07:25 AM 41.1°F5.1°C 31.0°F-0.6°C 67% 15.5 mph NE24.9 kmh NE 29.0 mph46.7 kmh 29.62 in1003.0 mb 0.00 in0.0 mm 0.00 in0.0 mm 0.13 in3.3 mm
07:30 AM 41.1°F5.1°C 31.0°F-0.6°C 67% 16.3 mph NE26.2 kmh NE 31.0 mph49.9 kmh 29.62 in1003.0 mb 0.00 in0.0 mm 0.00 in0.0 mm 0.13 in3.3 mm
07:35 AM 41.1°F5.1°C 31.0°F-0.6°C 67% 16.8 mph NE27.0 kmh NE 31.0 mph49.9 kmh 29.62 in1003.0 mb 0.00 in0.0 mm 0.00 in0.0 mm 0.13 in3.3 mm
07:40 AM 41.0°F5.0°C 30.9°F-0.6°C 67% 17.0 mph NE27.4 kmh NE 27.0 mph43.5 kmh 29.62 in1003.0 mb 0.00 in0.0 mm 0.00 in0.0 mm 0.13 in3.3 mm
07:45 AM 41.1°F5.1°C 31.0°F-0.6°C 67% 17.0 mph NE27.4 kmh NE 26.0 mph41.8 kmh 29.62 in1003.0 mb 0.00 in0.0 mm 0.00 in0.0 mm 0.13 in3.3 mm
07:50 AM 41.0°F5.0°C 30.5°F-0.8°C 66% 17.2 mph NE27.7 kmh NE 27.0 mph43.5 kmh 29.62 in1003.0 mb 0.00 in0.0 mm 0.00 in0.0 mm 0.13 in3.3 mm
07:55 AM 41.1°F5.1°C 31.0°F-0.6°C 67% 17.6 mph NE28.3 kmh NE 27.0 mph43.5 kmh 29.62 in1003.0 mb 0.00 in0.0 mm 0.00 in0.0 mm 0.13 in3.3 mm
08:00 AM 41.1°F5.1°C 30.6°F-0.8°C 66% 17.4 mph NE28.0 kmh NE 27.0 mph43.5 kmh 29.62 in1003.0 mb 0.00 in0.0 mm 0.00 in0.0 mm 0.13 in3.3 mm
08:05 AM 41.2°F5.1°C 30.7°F-0.7°C 66% 16.9 mph NE27.2 kmh NE 27.0 mph43.5 kmh 29.62 in1003.0 mb 0.00 in0.0 mm 0.00 in0.0 mm 0.13 in3.3 mm
08:10 AM 41.3°F5.2°C 30.8°F-0.7°C 66% 16.5 mph NE26.6 kmh NE 29.0 mph46.7 kmh 29.62 in1003.0 mb 0.00 in0.0 mm 0.00 in0.0 mm 0.13 in3.3 mm
08:15 AM 41.4°F5.2°C 30.9°F-0.6°C 66% 16.1 mph NE25.9 kmh NE 29.0 mph46.7 kmh 29.62 in1003.0 mb 0.00 in0.0 mm 0.00 in0.0 mm 0.13 in3.3 mm
08:20 AM 41.7°F5.4°C 31.2°F-0.4°C 66% 15.7 mph NE25.3 kmh NE 30.0 mph48.3 kmh 29.62 in1003.0 mb 0.00 in0.0 mm 0.00 in0.0 mm 0.13 in3.3 mm
08:25 AM 41.9°F5.5°C 31.0°F-0.6°C 65% 15.8 mph NE25.4 kmh NE 32.0 mph51.5 kmh 29.62 in1003.0 mb 0.00 in0.0 mm 0.00 in0.0 mm 0.13 in3.3 mm
08:30 AM 42.1°F5.6°C 31.2°F-0.4°C 65% 16.6 mph NE26.7 kmh NE 32.0 mph51.5 kmh 29.62 in1003.0 mb 0.00 in0.0 mm 0.00 in0.0 mm 0.13 in3.3 mm
08:35 AM 42.4°F5.8°C 31.1°F-0.5°C 64% 17.0 mph NE27.4 kmh NE 27.0 mph43.5 kmh 29.62 in1003.0 mb 0.00 in0.0 mm 0.00 in0.0 mm 0.13 in3.3 mm
08:40 AM 42.5°F5.8°C 31.2°F-0.4°C 64% 16.8 mph NE27.0 kmh NE 31.0 mph49.9 kmh 29.62 in1003.0 mb 0.00 in0.0 mm 0.00 in0.0 mm 0.13 in3.3 mm
08:45 AM 42.7°F5.9°C 31.4°F-0.3°C 64% 16.8 mph NE27.0 kmh NE 31.0 mph49.9 kmh 29.63 in1003.4 mb 0.00 in0.0 mm 0.00 in0.0 mm 0.13 in3.3 mm
08:50 AM 42.6°F5.9°C 31.3°F-0.4°C 64% 17.2 mph NE27.7 kmh NE 28.0 mph45.1 kmh 29.63 in1003.4 mb 0.00 in0.0 mm 0.00 in0.0 mm 0.13 in3.3 mm
08:55 AM 42.7°F5.9°C 31.4°F-0.3°C 64% 17.1 mph NE27.5 kmh NE 28.0 mph45.1 kmh 29.64 in1003.7 mb 0.00 in0.0 mm 0.00 in0.0 mm 0.13 in3.3 mm
09:00 AM 42.8°F6.0°C 31.1°F-0.5°C 63% 16.1 mph NE25.9 kmh NE 28.0 mph45.1 kmh 29.63 in1003.4 mb 0.00 in0.0 mm 0.00 in0.0 mm 0.13 in3.3 mm
09:05 AM 42.6°F5.9°C 30.9°F-0.6°C 63% 15.3 mph NE24.6 kmh NE 32.0 mph51.5 kmh 29.64 in1003.7 mb 0.00 in0.0 mm 0.00 in0.0 mm 0.13 in3.3 mm
09:10 AM 42.8°F6.0°C 31.1°F-0.5°C 63% 16.1 mph NE25.9 kmh NE 32.0 mph51.5 kmh 29.63 in1003.4 mb 0.00 in0.0 mm 0.00 in0.0 mm 0.13 in3.3 mm
09:15 AM 43.1°F6.2°C 31.4°F-0.3°C 63% 17.5 mph NE28.2 kmh NE 28.0 mph45.1 kmh 29.63 in1003.4 mb 0.00 in0.0 mm 0.00 in0.0 mm 0.13 in3.3 mm
09:20 AM 43.5°F6.4°C 31.7°F-0.2°C 63% 18.0 mph NE29.0 kmh NE 29.0 mph46.7 kmh 29.64 in1003.7 mb 0.00 in0.0 mm 0.00 in0.0 mm 0.13 in3.3 mm
09:25 AM 43.9°F6.6°C 31.7°F-0.2°C 62% 16.9 mph NE27.2 kmh NE 29.0 mph46.7 kmh 29.64 in1003.7 mb 0.00 in0.0 mm 0.00 in0.0 mm 0.13 in3.3 mm
09:30 AM 44.2°F6.8°C 32.0°F0.0°C 62% 15.2 mph NE24.5 kmh NE 24.0 mph38.6 kmh 29.64 in1003.7 mb 0.00 in0.0 mm 0.00 in0.0 mm 0.13 in3.3 mm
09:35 AM 44.4°F6.9°C 31.8°F-0.1°C 61% 14.3 mph NE23.0 kmh NE 27.0 mph43.5 kmh 29.64 in1003.7 mb 0.00 in0.0 mm 0.00 in0.0 mm 0.13 in3.3 mm
09:40 AM 44.4°F6.9°C 31.8°F-0.1°C 61% 14.6 mph NE23.5 kmh NE 27.0 mph43.5 kmh 29.63 in1003.4 mb 0.00 in0.0 mm 0.00 in0.0 mm 0.13 in3.3 mm
09:45 AM 44.4°F6.9°C 31.8°F-0.1°C 61% 15.1 mph NE24.3 kmh NE 24.0 mph38.6 kmh 29.64 in1003.7 mb 0.00 in0.0 mm 0.00 in0.0 mm 0.13 in3.3 mm
09:50 AM 44.4°F6.9°C 31.8°F-0.1°C 61% 15.4 mph NE24.8 kmh NE 25.0 mph40.2 kmh 29.64 in1003.7 mb 0.00 in0.0 mm 0.00 in0.0 mm 0.13 in3.3 mm
09:55 AM 44.5°F6.9°C 31.9°F-0.1°C 61% 15.8 mph NE25.4 kmh NE 31.0 mph49.9 kmh 29.63 in1003.4 mb 0.00 in0.0 mm 0.00 in0.0 mm 0.13 in3.3 mm
10:00 AM 44.5°F6.9°C 31.9°F-0.1°C 61% 16.6 mph NE26.7 kmh NE 31.0 mph49.9 kmh 29.64 in1003.7 mb 0.00 in0.0 mm 0.00 in0.0 mm 0.13 in3.3 mm
10:05 AM 44.5°F6.9°C 31.9°F-0.1°C 61% 16.9 mph NE27.2 kmh NE 30.0 mph48.3 kmh 29.63 in1003.4 mb 0.00 in0.0 mm 0.00 in0.0 mm 0.13 in3.3 mm
10:10 AM 44.4°F6.9°C 31.8°F-0.1°C 61% 16.3 mph NE26.2 kmh NE 25.0 mph40.2 kmh 29.63 in1003.4 mb 0.00 in0.0 mm 0.00 in0.0 mm 0.13 in3.3 mm
10:15 AM 44.5°F6.9°C 31.9°F-0.1°C 61% 15.3 mph NE24.6 kmh NE 27.0 mph43.5 kmh 29.63 in1003.4 mb 0.00 in0.0 mm 0.00 in0.0 mm 0.13 in3.3 mm
10:20 AM 44.6°F7.0°C 32.0°F0.0°C 61% 15.1 mph NE24.3 kmh NE 29.0 mph46.7 kmh 29.63 in1003.4 mb 0.00 in0.0 mm 0.00 in0.0 mm 0.13 in3.3 mm
10:25 AM 44.6°F7.0°C 32.0°F0.0°C 61% 15.5 mph NE24.9 kmh NE 29.0 mph46.7 kmh 29.63 in1003.4 mb 0.00 in0.0 mm 0.00 in0.0 mm 0.13 in3.3 mm
10:30 AM 44.7°F7.1°C 32.1°F0.1°C 61% 16.0 mph NE25.7 kmh NE 28.0 mph45.1 kmh 29.63 in1003.4 mb 0.00 in0.0 mm 0.00 in0.0 mm 0.13 in3.3 mm
10:35 AM 44.9°F7.2°C 32.3°F0.2°C 61% 16.3 mph NE26.2 kmh NE 29.0 mph46.7 kmh 29.63 in1003.4 mb 0.00 in0.0 mm 0.00 in0.0 mm 0.13 in3.3 mm
10:40 AM 44.9°F7.2°C 31.8°F-0.1°C 60% 16.3 mph NE26.2 kmh NE 30.0 mph48.3 kmh 29.64 in1003.7 mb 0.00 in0.0 mm 0.00 in0.0 mm 0.13 in3.3 mm
10:45 AM 45.0°F7.2°C 32.3°F0.2°C 61% 16.1 mph NE25.9 kmh NE 30.0 mph48.3 kmh 29.64 in1003.7 mb 0.00 in0.0 mm 0.00 in0.0 mm 0.13 in3.3 mm
10:50 AM 44.9°F7.2°C 32.3°F0.2°C 61% 16.3 mph NE26.2 kmh NE 28.0 mph45.1 kmh 29.64 in1003.7 mb 0.00 in0.0 mm 0.00 in0.0 mm 0.13 in3.3 mm
10:55 AM 44.7°F7.1°C 32.1°F0.1°C 61% 16.4 mph NE26.4 kmh NE 29.0 mph46.7 kmh 29.64 in1003.7 mb 0.00 in0.0 mm 0.00 in0.0 mm 0.13 in3.3 mm
11:00 AM 44.7°F7.1°C 32.1°F0.1°C 61% 16.6 mph NE26.7 kmh NE 32.0 mph51.5 kmh 29.64 in1003.7 mb 0.00 in0.0 mm 0.00 in0.0 mm 0.13 in3.3 mm
11:05 AM 44.7°F7.1°C 32.1°F0.1°C 61% 17.3 mph NE27.8 kmh NE 37.0 mph59.5 kmh 29.64 in1003.7 mb 0.00 in0.0 mm 0.00 in0.0 mm 0.13 in3.3 mm
11:10 AM 44.7°F7.1°C 32.1°F0.1°C 61% 17.8 mph NE28.6 kmh NE 37.0 mph59.5 kmh 29.64 in1003.7 mb 0.00 in0.0 mm 0.00 in0.0 mm 0.13 in3.3 mm
11:15 AM 44.7°F7.1°C 32.1°F0.1°C 61% 17.9 mph NE28.8 kmh NE 32.0 mph51.5 kmh 29.64 in1003.7 mb 0.00 in0.0 mm 0.00 in0.0 mm 0.13 in3.3 mm
11:20 AM 44.8°F7.1°C 32.6°F0.3°C 62% 17.6 mph NE28.3 kmh NE 32.0 mph51.5 kmh 29.64 in1003.7 mb 0.00 in0.0 mm 0.00 in0.0 mm 0.13 in3.3 mm
11:25 AM 44.9°F7.2°C 32.3°F0.2°C 61% 17.2 mph NE27.7 kmh NE 28.0 mph45.1 kmh 29.64 in1003.7 mb 0.00 in0.0 mm 0.00 in0.0 mm 0.13 in3.3 mm
11:30 AM 44.9°F7.2°C 32.3°F0.2°C 61% 16.7 mph NE26.9 kmh NE 28.0 mph45.1 kmh 29.64 in1003.7 mb 0.00 in0.0 mm 0.00 in0.0 mm 0.13 in3.3 mm
11:35 AM 44.9°F7.2°C 32.3°F0.2°C 61% 16.4 mph NE26.4 kmh NE 31.0 mph49.9 kmh 29.64 in1003.7 mb 0.00 in0.0 mm 0.00 in0.0 mm 0.13 in3.3 mm
11:40 AM 44.8°F7.1°C 32.2°F0.1°C 61% 16.8 mph NE27.0 kmh NE 31.0 mph49.9 kmh 29.64 in1003.7 mb 0.00 in0.0 mm 0.00 in0.0 mm 0.13 in3.3 mm
11:45 AM 44.7°F7.1°C 32.1°F0.1°C 61% 17.4 mph NE28.0 kmh NE 32.0 mph51.5 kmh 29.63 in1003.4 mb 0.00 in0.0 mm 0.00 in0.0 mm 0.13 in3.3 mm
11:50 AM 44.5°F6.9°C 31.9°F-0.1°C 61% 18.1 mph NE29.1 kmh NE 33.0 mph53.1 kmh 29.63 in1003.4 mb 0.00 in0.0 mm 0.00 in0.0 mm 0.13 in3.3 mm
11:55 AM 44.4°F6.9°C 32.2°F0.1°C 62% 18.4 mph NE29.6 kmh NE 33.0 mph53.1 kmh 29.62 in1003.0 mb 0.00 in0.0 mm 0.00 in0.0 mm 0.13 in3.3 mm
12:00 PM 44.3°F6.8°C 32.1°F0.1°C 62% 18.3 mph NE29.5 kmh NE 31.0 mph49.9 kmh 29.62 in1003.0 mb 0.00 in0.0 mm 0.00 in0.0 mm 0.13 in3.3 mm
12:05 PM 44.4°F6.9°C 32.2°F0.1°C 62% 18.1 mph NE29.1 kmh NE 32.0 mph51.5 kmh 29.62 in1003.0 mb 0.00 in0.0 mm 0.00 in0.0 mm 0.13 in3.3 mm
12:10 PM 44.4°F6.9°C 32.2°F0.1°C 62% 17.4 mph NE28.0 kmh NE 32.0 mph51.5 kmh 29.62 in1003.0 mb 0.00 in0.0 mm 0.00 in0.0 mm 0.13 in3.3 mm
12:15 PM 44.5°F6.9°C 32.3°F0.2°C 62% 17.1 mph NE27.5 kmh NE 34.0 mph54.7 kmh 29.62 in1003.0 mb 0.00 in0.0 mm 0.00 in0.0 mm 0.13 in3.3 mm
12:20 PM 44.4°F6.9°C 32.2°F0.1°C 62% 17.1 mph NE27.5 kmh NE 34.0 mph54.7 kmh 29.62 in1003.0 mb 0.00 in0.0 mm 0.00 in0.0 mm 0.13 in3.3 mm
12:25 PM 44.4°F6.9°C 32.2°F0.1°C 62% 16.8 mph NE27.0 kmh NE 29.0 mph46.7 kmh 29.62 in1003.0 mb 0.00 in0.0 mm 0.00 in0.0 mm 0.13 in3.3 mm
12:30 PM 44.3°F6.8°C 32.1°F0.1°C 62% 16.1 mph NE25.9 kmh NE 30.0 mph48.3 kmh 29.62 in1003.0 mb 0.00 in0.0 mm 0.00 in0.0 mm 0.13 in3.3 mm
12:35 PM 44.3°F6.8°C 32.1°F0.1°C 62% 14.8 mph NE23.8 kmh NE 30.0 mph48.3 kmh 29.62 in1003.0 mb 0.00 in0.0 mm 0.00 in0.0 mm 0.13 in3.3 mm
12:40 PM 44.2°F6.8°C 32.0°F0.0°C 62% 13.6 mph NE21.9 kmh NE 27.0 mph43.5 kmh 29.63 in1003.4 mb 0.00 in0.0 mm 0.00 in0.0 mm 0.13 in3.3 mm
12:45 PM 44.1°F6.7°C 31.9°F-0.1°C 62% 13.5 mph NE21.7 kmh NE 27.0 mph43.5 kmh 29.63 in1003.4 mb 0.00 in0.0 mm 0.00 in0.0 mm 0.13 in3.3 mm
12:50 PM 44.0°F6.7°C 31.8°F-0.1°C 62% 13.9 mph NE22.4 kmh NE 23.0 mph37.0 kmh 29.64 in1003.7 mb 0.00 in0.0 mm 0.00 in0.0 mm 0.13 in3.3 mm
12:55 PM 44.0°F6.7°C 32.2°F0.1°C 63% 12.2 mph NE19.6 kmh NE 31.0 mph49.9 kmh 29.64 in1003.7 mb 0.00 in0.0 mm 0.00 in0.0 mm 0.13 in3.3 mm
01:00 PM 44.0°F6.7°C 32.6°F0.3°C 64% 9.9 mph NE15.9 kmh NE 31.0 mph49.9 kmh 29.65 in1004.1 mb 0.00 in0.0 mm 0.00 in0.0 mm 0.13 in3.3 mm
01:05 PM 43.6°F6.4°C 32.6°F0.3°C 65% 10.8 mph NE17.4 kmh NE 26.0 mph41.8 kmh 29.64 in1003.7 mb 0.00 in0.0 mm 0.00 in0.0 mm 0.13 in3.3 mm
01:10 PM 43.4°F6.3°C 32.4°F0.2°C 65% 13.0 mph NE20.9 kmh NE 23.0 mph37.0 kmh 29.64 in1003.7 mb 0.00 in0.0 mm 0.00 in0.0 mm 0.13 in3.3 mm
01:15 PM 43.2°F6.2°C 32.6°F0.3°C 66% 13.9 mph NE22.4 kmh NE 26.0 mph41.8 kmh 29.65 in1004.1 mb 0.00 in0.0 mm 0.00 in0.0 mm 0.13 in3.3 mm
01:20 PM 42.9°F6.1°C 33.1°F0.6°C 68% 13.6 mph NE21.9 kmh NE 26.0 mph41.8 kmh 29.64 in1003.7 mb 0.00 in0.0 mm 0.00 in0.0 mm 0.13 in3.3 mm
01:25 PM 42.9°F6.1°C 33.1°F0.6°C 68% 12.1 mph NE19.5 kmh NE 22.0 mph35.4 kmh 29.65 in1004.1 mb 0.00 in0.0 mm 0.00 in0.0 mm 0.13 in3.3 mm
01:30 PM 42.9°F6.1°C 32.7°F0.4°C 67% 10.9 mph NE17.5 kmh NE 22.0 mph35.4 kmh 29.64 in1003.7 mb 0.00 in0.0 mm 0.00 in0.0 mm 0.13 in3.3 mm
01:35 PM 42.8°F6.0°C 33.0°F0.6°C 68% 11.1 mph NE17.9 kmh NE 22.0 mph35.4 kmh 29.64 in1003.7 mb 0.00 in0.0 mm 0.00 in0.0 mm 0.13 in3.3 mm
01:40 PM 42.9°F6.1°C 32.7°F0.4°C 67% 11.7 mph NE18.8 kmh NE 21.0 mph33.8 kmh 29.64 in1003.7 mb 0.00 in0.0 mm 0.00 in0.0 mm 0.13 in3.3 mm
01:45 PM 43.0°F6.1°C 32.4°F0.2°C 66% 11.7 mph NE18.8 kmh NE 24.0 mph38.6 kmh 29.64 in1003.7 mb 0.00 in0.0 mm 0.00 in0.0 mm 0.13 in3.3 mm
01:50 PM 43.1°F6.2°C 32.5°F0.3°C 66% 11.3 mph NE18.2 kmh NE 24.0 mph38.6 kmh 29.64 in1003.7 mb 0.00 in0.0 mm 0.00 in0.0 mm 0.13 in3.3 mm
01:55 PM 43.2°F6.2°C 32.6°F0.3°C 66% 11.1 mph NE17.9 kmh NE 23.0 mph37.0 kmh 29.64 in1003.7 mb 0.00 in0.0 mm 0.00 in0.0 mm 0.13 in3.3 mm
02:00 PM 42.9°F6.1°C 32.7°F0.4°C 67% 11.8 mph NE19.0 kmh NE 28.0 mph45.1 kmh 29.63 in1003.4 mb 0.00 in0.0 mm 0.00 in0.0 mm 0.13 in3.3 mm
02:05 PM 42.3°F5.7°C 33.6°F0.9°C 71% 13.5 mph NE21.7 kmh NE 28.0 mph45.1 kmh 29.63 in1003.4 mb 0.00 in0.0 mm 0.00 in0.0 mm 0.13 in3.3 mm
02:10 PM 41.6°F5.3°C 33.9°F1.1°C 74% 15.1 mph NE24.3 kmh NE 28.0 mph45.1 kmh 29.63 in1003.4 mb 0.01 in0.3 mm 0.12 in3.0 mm 0.14 in3.6 mm
02:15 PM 41.1°F5.1°C 34.1°F1.2°C 76% 15.6 mph NE25.1 kmh NE 28.0 mph45.1 kmh 29.63 in1003.4 mb 0.01 in0.3 mm 0.00 in0.0 mm 0.14 in3.6 mm
02:20 PM 40.7°F4.8°C 34.4°F1.3°C 78% 15.2 mph NE24.5 kmh NE 25.0 mph40.2 kmh 29.63 in1003.4 mb 0.01 in0.3 mm 0.00 in0.0 mm 0.14 in3.6 mm
02:25 PM 40.5°F4.7°C 34.2°F1.2°C 78% 14.9 mph NE24.0 kmh NE 26.0 mph41.8 kmh 29.63 in1003.4 mb 0.02 in0.5 mm 0.12 in3.0 mm 0.15 in3.8 mm
02:30 PM 40.4°F4.7°C 34.4°F1.3°C 79% 15.1 mph NE24.3 kmh NE 26.0 mph41.8 kmh 29.62 in1003.0 mb 0.02 in0.5 mm 0.00 in0.0 mm 0.15 in3.8 mm
02:35 PM 40.4°F4.7°C 34.4°F1.3°C 79% 15.3 mph NE24.6 kmh NE 28.0 mph45.1 kmh 29.62 in1003.0 mb 0.02 in0.5 mm 0.00 in0.0 mm 0.16 in4.1 mm
02:40 PM 40.3°F4.6°C 34.6°F1.4°C 80% 15.1 mph NE24.3 kmh NE 28.0 mph45.1 kmh 29.62 in1003.0 mb 0.02 in0.5 mm 0.00 in0.0 mm 0.16 in4.1 mm
02:45 PM 40.3°F4.6°C 34.6°F1.4°C 80% 14.8 mph NE23.8 kmh NE 24.0 mph38.6 kmh 29.63 in1003.4 mb 0.02 in0.5 mm 0.00 in0.0 mm 0.16 in4.1 mm
02:50 PM 40.3°F4.6°C 34.3°F1.3°C 79% 14.3 mph NE23.0 kmh NE 25.0 mph40.2 kmh 29.63 in1003.4 mb 0.02 in0.5 mm 0.00 in0.0 mm 0.16 in4.1 mm
02:55 PM 40.3°F4.6°C 34.3°F1.3°C 79% 14.0 mph NE22.5 kmh NE 25.0 mph40.2 kmh 29.63 in1003.4 mb 0.03 in0.8 mm 0.12 in3.0 mm 0.17 in4.3 mm
03:00 PM 40.1°F4.5°C 34.4°F1.3°C 80% 13.7 mph NE22.0 kmh NE 22.0 mph35.4 kmh 29.63 in1003.4 mb 0.03 in0.8 mm 0.00 in0.0 mm 0.17 in4.3 mm
03:05 PM 40.1°F4.5°C 34.4°F1.3°C 80% 13.2 mph NE21.2 kmh NE 24.0 mph38.6 kmh 29.63 in1003.4 mb 0.03 in0.8 mm 0.00 in0.0 mm 0.17 in4.3 mm
03:10 PM 40.0°F4.4°C 34.3°F1.3°C 80% 13.4 mph NE21.6 kmh NE 24.0 mph38.6 kmh 29.63 in1003.4 mb 0.02 in0.5 mm 0.00 in0.0 mm 0.17 in4.3 mm
03:15 PM 39.9°F4.4°C 34.5°F1.4°C 81% 13.7 mph NE22.0 kmh NE 27.0 mph43.5 kmh 29.64 in1003.7 mb 0.03 in0.8 mm 0.12 in3.0 mm 0.17 in4.3 mm
03:20 PM 39.9°F4.4°C 34.5°F1.4°C 81% 13.9 mph NE22.4 kmh NE 27.0 mph43.5 kmh 29.63 in1003.4 mb 0.03 in0.8 mm 0.00 in0.0 mm 0.17 in4.3 mm
03:25 PM 39.8°F4.3°C 34.1°F1.2°C 80% 14.2 mph NE22.9 kmh NE 25.0 mph40.2 kmh 29.63 in1003.4 mb 0.02 in0.5 mm 0.00 in0.0 mm 0.17 in4.3 mm
03:30 PM 39.8°F4.3°C 34.1°F1.2°C 80% 14.5 mph NE23.3 kmh NE 25.0 mph40.2 kmh 29.63 in1003.4 mb 0.02 in0.5 mm 0.00 in0.0 mm 0.17 in4.3 mm
03:35 PM 39.7°F4.3°C 34.0°F1.1°C 80% 14.3 mph NE23.0 kmh NE 26.0 mph41.8 kmh 29.62 in1003.0 mb 0.02 in0.5 mm 0.00 in0.0 mm 0.17 in4.3 mm
03:40 PM 39.8°F4.3°C 34.1°F1.2°C 80% 14.4 mph NE23.2 kmh NE 28.0 mph45.1 kmh 29.63 in1003.4 mb 0.02 in0.5 mm 0.00 in0.0 mm 0.18 in4.6 mm
03:45 PM 39.7°F4.3°C 34.3°F1.3°C 81% 15.3 mph NE24.6 kmh NE 28.0 mph45.1 kmh 29.63 in1003.4 mb 0.02 in0.5 mm 0.00 in0.0 mm 0.18 in4.6 mm
03:50 PM 39.7°F4.3°C 34.3°F1.3°C 81% 14.9 mph NE24.0 kmh NE 23.0 mph37.0 kmh 29.62 in1003.0 mb 0.02 in0.5 mm 0.00 in0.0 mm 0.18 in4.6 mm
03:55 PM 39.8°F4.3°C 34.1°F1.2°C 80% 13.1 mph NE21.1 kmh NE 24.0 mph38.6 kmh 29.62 in1003.0 mb 0.02 in0.5 mm 0.00 in0.0 mm 0.18 in4.6 mm
04:00 PM 39.8°F4.3°C 34.1°F1.2°C 80% 12.2 mph NE19.6 kmh NE 25.0 mph40.2 kmh 29.62 in1003.0 mb 0.02 in0.5 mm 0.00 in0.0 mm 0.18 in4.6 mm
04:05 PM 39.9°F4.4°C 34.2°F1.2°C 80% 12.6 mph NE20.3 kmh NE 26.0 mph41.8 kmh 29.61 in1002.7 mb 0.02 in0.5 mm 0.00 in0.0 mm 0.18 in4.6 mm
04:10 PM 40.0°F4.4°C 34.0°F1.1°C 79% 13.3 mph NE21.4 kmh NE 26.0 mph41.8 kmh 29.61 in1002.7 mb 0.02 in0.5 mm 0.00 in0.0 mm 0.18 in4.6 mm
04:15 PM 40.1°F4.5°C 34.1°F1.2°C 79% 13.6 mph NE21.9 kmh NE 22.0 mph35.4 kmh 29.61 in1002.7 mb 0.02 in0.5 mm 0.00 in0.0 mm 0.19 in4.8 mm
04:20 PM 40.1°F4.5°C 34.1°F1.2°C 79% 13.4 mph NE21.6 kmh NE 22.0 mph35.4 kmh 29.61 in1002.7 mb 0.02 in0.5 mm 0.00 in0.0 mm 0.19 in4.8 mm
04:25 PM 40.1°F4.5°C 34.1°F1.2°C 79% 13.0 mph NE20.9 kmh NE 32.0 mph51.5 kmh 29.61 in1002.7 mb 0.02 in0.5 mm 0.00 in0.0 mm 0.19 in4.8 mm
04:30 PM 40.3°F4.6°C 34.3°F1.3°C 79% 13.3 mph NE21.4 kmh NE 32.0 mph51.5 kmh 29.61 in1002.7 mb 0.02 in0.5 mm 0.00 in0.0 mm 0.19 in4.8 mm
04:35 PM 40.4°F4.7°C 34.1°F1.2°C 78% 13.8 mph NE22.2 kmh NE 28.0 mph45.1 kmh 29.60 in1002.4 mb 0.01 in0.3 mm 0.00 in0.0 mm 0.19 in4.8 mm
04:40 PM 40.5°F4.7°C 34.2°F1.2°C 78% 14.5 mph NE23.3 kmh NE 29.0 mph46.7 kmh 29.60 in1002.4 mb 0.01 in0.3 mm 0.00 in0.0 mm 0.19 in4.8 mm
04:45 PM 40.8°F4.9°C 34.1°F1.2°C 77% 15.2 mph NE24.5 kmh NE 29.0 mph46.7 kmh 29.60 in1002.4 mb 0.01 in0.3 mm 0.00 in0.0 mm 0.19 in4.8 mm
04:50 PM 40.9°F4.9°C 33.9°F1.1°C 76% 15.8 mph NE25.4 kmh NE 29.0 mph46.7 kmh 29.60 in1002.4 mb 0.01 in0.3 mm 0.00 in0.0 mm 0.19 in4.8 mm
04:55 PM 41.1°F5.1°C 33.8°F1.0°C 75% 15.6 mph NE25.1 kmh NE 29.0 mph46.7 kmh 29.59 in1002.0 mb 0.01 in0.3 mm 0.00 in0.0 mm 0.19 in4.8 mm
05:00 PM 41.2°F5.1°C 33.5°F0.8°C 74% 15.4 mph NE24.8 kmh NE 27.0 mph43.5 kmh 29.59 in1002.0 mb 0.01 in0.3 mm 0.00 in0.0 mm 0.19 in4.8 mm
05:05 PM 41.3°F5.2°C 33.3°F0.7°C 73% 16.1 mph NE25.9 kmh NE 36.0 mph57.9 kmh 29.59 in1002.0 mb 0.01 in0.3 mm 0.00 in0.0 mm 0.19 in4.8 mm
05:10 PM 41.2°F5.1°C 33.5°F0.8°C 74% 17.0 mph NE27.4 kmh NE 36.0 mph57.9 kmh 29.59 in1002.0 mb 0.01 in0.3 mm 0.00 in0.0 mm 0.19 in4.8 mm
05:15 PM 41.3°F5.2°C 33.3°F0.7°C 73% 17.7 mph NE28.5 kmh NE 32.0 mph51.5 kmh 29.59 in1002.0 mb 0.00 in0.0 mm 0.00 in0.0 mm 0.19 in4.8 mm
05:20 PM 41.4°F5.2°C 33.4°F0.8°C 73% 18.3 mph NE29.5 kmh NE 31.0 mph49.9 kmh 29.58 in1001.7 mb 0.00 in0.0 mm 0.00 in0.0 mm 0.19 in4.8 mm
05:25 PM 41.5°F5.3°C 33.5°F0.8°C 73% 18.9 mph NE30.4 kmh NE 32.0 mph51.5 kmh 29.58 in1001.7 mb 0.00 in0.0 mm 0.00 in0.0 mm 0.19 in4.8 mm
05:30 PM 41.4°F5.2°C 33.4°F0.8°C 73% 18.8 mph NE30.3 kmh NE 32.0 mph51.5 kmh 29.59 in1002.0 mb 0.00 in0.0 mm 0.00 in0.0 mm 0.19 in4.8 mm
05:35 PM 41.4°F5.2°C 33.0°F0.6°C 72% 17.9 mph NE28.8 kmh NE 38.0 mph61.2 kmh 29.59 in1002.0 mb 0.01 in0.3 mm 0.12 in3.0 mm 0.20 in5.1 mm
05:40 PM 41.4°F5.2°C 33.0°F0.6°C 72% 17.2 mph NE27.7 kmh NE 38.0 mph61.2 kmh 29.59 in1002.0 mb 0.01 in0.3 mm 0.00 in0.0 mm 0.20 in5.1 mm
05:45 PM 41.4°F5.2°C 33.4°F0.8°C 73% 17.9 mph NE28.8 kmh NE 36.0 mph57.9 kmh 29.58 in1001.7 mb 0.01 in0.3 mm 0.00 in0.0 mm 0.20 in5.1 mm
05:50 PM 41.1°F5.1°C 33.4°F0.8°C 74% 19.1 mph NE30.7 kmh NE 31.0 mph49.9 kmh 29.58 in1001.7 mb 0.01 in0.3 mm 0.00 in0.0 mm 0.20 in5.1 mm
05:55 PM 41.0°F5.0°C 33.7°F0.9°C 75% 19.3 mph NE31.1 kmh NE 33.0 mph53.1 kmh 29.59 in1002.0 mb 0.01 in0.3 mm 0.00 in0.0 mm 0.20 in5.1 mm
06:00 PM 40.9°F4.9°C 33.6°F0.9°C 75% 19.1 mph NE30.7 kmh NE 33.0 mph53.1 kmh 29.58 in1001.7 mb 0.01 in0.3 mm 0.00 in0.0 mm 0.20 in5.1 mm
06:05 PM 40.9°F4.9°C 33.9°F1.1°C 76% 19.6 mph NE31.5 kmh NE 33.0 mph53.1 kmh 29.58 in1001.7 mb 0.02 in0.5 mm 0.12 in3.0 mm 0.20 in5.1 mm
06:10 PM 40.8°F4.9°C 33.8°F1.0°C 76% 20.3 mph NE32.7 kmh NE 37.0 mph59.5 kmh 29.59 in1002.0 mb 0.02 in0.5 mm 0.00 in0.0 mm 0.20 in5.1 mm
06:15 PM 40.7°F4.8°C 34.0°F1.1°C 77% 20.8 mph NE33.5 kmh NE 37.0 mph59.5 kmh 29.59 in1002.0 mb 0.02 in0.5 mm 0.00 in0.0 mm 0.20 in5.1 mm
06:20 PM 40.6°F4.8°C 34.3°F1.3°C 78% 20.2 mph NE32.5 kmh NE 32.0 mph51.5 kmh 29.59 in1002.0 mb 0.02 in0.5 mm 0.00 in0.0 mm 0.20 in5.1 mm
06:25 PM 40.5°F4.7°C 34.2°F1.2°C 78% 18.5 mph NE29.8 kmh NE 29.0 mph46.7 kmh 29.60 in1002.4 mb 0.02 in0.5 mm 0.00 in0.0 mm 0.20 in5.1 mm
06:30 PM 40.6°F4.8°C 34.3°F1.3°C 78% 17.3 mph NE27.8 kmh NE 29.0 mph46.7 kmh 29.59 in1002.0 mb 0.02 in0.5 mm 0.00 in0.0 mm 0.21 in5.3 mm
06:35 PM 40.6°F4.8°C 34.3°F1.3°C 78% 16.8 mph NE27.0 kmh NE 34.0 mph54.7 kmh 29.59 in1002.0 mb 0.02 in0.5 mm 0.00 in0.0 mm 0.21 in5.3 mm
06:40 PM 40.5°F4.7°C 34.5°F1.4°C 79% 16.8 mph NE27.0 kmh NE 34.0 mph54.7 kmh 29.60 in1002.4 mb 0.02 in0.5 mm 0.00 in0.0 mm 0.21 in5.3 mm
06:45 PM 40.4°F4.7°C 34.4°F1.3°C 79% 17.7 mph NE28.5 kmh NE 38.0 mph61.2 kmh 29.60 in1002.4 mb 0.02 in0.5 mm 0.00 in0.0 mm 0.21 in5.3 mm
06:50 PM 40.1°F4.5°C 34.4°F1.3°C 80% 18.9 mph NE30.4 kmh NE 38.0 mph61.2 kmh 29.60 in1002.4 mb 0.02 in0.5 mm 0.00 in0.0 mm 0.21 in5.3 mm
06:55 PM 39.9°F4.4°C 34.5°F1.4°C 81% 18.9 mph NE30.4 kmh NE 28.0 mph45.1 kmh 29.60 in1002.4 mb 0.02 in0.5 mm 0.00 in0.0 mm 0.22 in5.6 mm
07:00 PM 39.7°F4.3°C 34.3°F1.3°C 81% 18.2 mph NE29.3 kmh NE 34.0 mph54.7 kmh 29.60 in1002.4 mb 0.02 in0.5 mm 0.00 in0.0 mm 0.22 in5.6 mm
07:05 PM 39.7°F4.3°C 34.3°F1.3°C 81% 18.8 mph NE30.3 kmh NE 35.0 mph56.3 kmh 29.59 in1002.0 mb 0.02 in0.5 mm 0.00 in0.0 mm 0.22 in5.6 mm
07:10 PM 39.8°F4.3°C 34.8°F1.6°C 82% 20.3 mph NE32.7 kmh NE 35.0 mph56.3 kmh 29.59 in1002.0 mb 0.02 in0.5 mm 0.00 in0.0 mm 0.23 in5.8 mm
07:15 PM 39.6°F4.2°C 34.9°F1.6°C 83% 20.7 mph NE33.3 kmh NE 30.0 mph48.3 kmh 29.59 in1002.0 mb 0.02 in0.5 mm 0.00 in0.0 mm 0.23 in5.8 mm
07:20 PM 39.6°F4.2°C 34.6°F1.4°C 82% 20.1 mph NE32.3 kmh NE 31.0 mph49.9 kmh 29.59 in1002.0 mb 0.02 in0.5 mm 0.00 in0.0 mm 0.23 in5.8 mm
07:25 PM 39.6°F4.2°C 34.9°F1.6°C 83% 19.7 mph NE31.7 kmh NE 32.0 mph51.5 kmh 29.60 in1002.4 mb 0.02 in0.5 mm 0.00 in0.0 mm 0.23 in5.8 mm
07:30 PM 39.7°F4.3°C 35.0°F1.7°C 83% 20.0 mph NE32.2 kmh NE 39.0 mph62.8 kmh 29.60 in1002.4 mb 0.02 in0.5 mm 0.00 in0.0 mm 0.23 in5.8 mm
07:35 PM 39.6°F4.2°C 34.9°F1.6°C 83% 20.3 mph NE32.7 kmh NE 39.0 mph62.8 kmh 29.59 in1002.0 mb 0.02 in0.5 mm 0.00 in0.0 mm 0.24 in6.1 mm
07:40 PM 39.7°F4.3°C 35.0°F1.7°C 83% 20.4 mph NE32.8 kmh NE 37.0 mph59.5 kmh 29.59 in1002.0 mb 0.02 in0.5 mm 0.00 in0.0 mm 0.24 in6.1 mm
07:45 PM 39.8°F4.3°C 35.1°F1.7°C 83% 20.8 mph NE33.5 kmh NE 34.0 mph54.7 kmh 29.59 in1002.0 mb 0.02 in0.5 mm 0.00 in0.0 mm 0.24 in6.1 mm
07:50 PM 39.7°F4.3°C 35.0°F1.7°C 83% 21.0 mph NE33.8 kmh NE 33.0 mph53.1 kmh 29.59 in1002.0 mb 0.02 in0.5 mm 0.00 in0.0 mm 0.24 in6.1 mm
07:55 PM 39.6°F4.2°C 35.8°F2.1°C 86% 19.9 mph NE32.0 kmh NE 31.0 mph49.9 kmh 29.59 in1002.0 mb 0.02 in0.5 mm 0.00 in0.0 mm 0.24 in6.1 mm
08:00 PM 39.9°F4.4°C 35.2°F1.8°C 83% 19.1 mph NE30.7 kmh NE 35.0 mph56.3 kmh 29.59 in1002.0 mb 0.02 in0.5 mm 0.00 in0.0 mm 0.24 in6.1 mm
08:05 PM 40.1°F4.5°C 35.0°F1.7°C 82% 19.0 mph NE30.6 kmh NE 35.0 mph56.3 kmh 29.59 in1002.0 mb 0.02 in0.5 mm 0.00 in0.0 mm 0.24 in6.1 mm
08:10 PM 40.2°F4.6°C 35.1°F1.7°C 82% 19.1 mph NE30.7 kmh NE 39.0 mph62.8 kmh 29.59 in1002.0 mb 0.02 in0.5 mm 0.00 in0.0 mm 0.24 in6.1 mm
08:15 PM 40.4°F4.7°C 35.3°F1.8°C 82% 19.5 mph NE31.4 kmh NE 39.0 mph62.8 kmh 29.59 in1002.0 mb 0.02 in0.5 mm 0.00 in0.0 mm 0.24 in6.1 mm
08:20 PM 40.3°F4.6°C 35.2°F1.8°C 82% 19.9 mph NE32.0 kmh NE 33.0 mph53.1 kmh 29.59 in1002.0 mb 0.02 in0.5 mm 0.00 in0.0 mm 0.24 in6.1 mm
08:25 PM 40.4°F4.7°C 35.3°F1.8°C 82% 19.4 mph NE31.2 kmh NE 33.0 mph53.1 kmh 29.59 in1002.0 mb 0.02 in0.5 mm 0.00 in0.0 mm 0.25 in6.4 mm
08:30 PM 40.4°F4.7°C 35.6°F2.0°C 83% 18.8 mph NE30.3 kmh NE 39.0 mph62.8 kmh 29.59 in1002.0 mb 0.02 in0.5 mm 0.00 in0.0 mm 0.25 in6.4 mm
08:35 PM 40.5°F4.7°C 35.7°F2.1°C 83% 19.7 mph NE31.7 kmh NE 39.0 mph62.8 kmh 29.59 in1002.0 mb 0.02 in0.5 mm 0.00 in0.0 mm 0.25 in6.4 mm
08:40 PM 40.7°F4.8°C 35.6°F2.0°C 82% 20.6 mph NE33.2 kmh NE 39.0 mph62.8 kmh 29.59 in1002.0 mb 0.02 in0.5 mm 0.00 in0.0 mm 0.25 in6.4 mm
08:45 PM 40.7°F4.8°C 35.6°F2.0°C 82% 21.5 mph NE34.6 kmh NE 39.0 mph62.8 kmh 29.59 in1002.0 mb 0.02 in0.5 mm 0.00 in0.0 mm 0.25 in6.4 mm
08:50 PM 40.6°F4.8°C 35.5°F1.9°C 82% 21.5 mph NE34.6 kmh NE 36.0 mph57.9 kmh 29.59 in1002.0 mb 0.02 in0.5 mm 0.00 in0.0 mm 0.26 in6.6 mm
08:55 PM 40.5°F4.7°C 35.4°F1.9°C 82% 20.7 mph NE33.3 kmh NE 35.0 mph56.3 kmh 29.59 in1002.0 mb 0.02 in0.5 mm 0.00 in0.0 mm 0.26 in6.6 mm
09:00 PM 40.5°F4.7°C 35.4°F1.9°C 82% 19.8 mph NE31.9 kmh NE 35.0 mph56.3 kmh 29.59 in1002.0 mb 0.02 in0.5 mm 0.00 in0.0 mm 0.27 in6.9 mm
09:05 PM 40.3°F4.6°C 36.1°F2.3°C 85% 19.2 mph NE30.9 kmh NE 35.0 mph56.3 kmh 29.59 in1002.0 mb 0.02 in0.5 mm 0.00 in0.0 mm 0.27 in6.9 mm
09:10 PM 40.3°F4.6°C 35.5°F1.9°C 83% 19.2 mph NE30.9 kmh NE 38.0 mph61.2 kmh 29.59 in1002.0 mb 0.02 in0.5 mm 0.00 in0.0 mm 0.27 in6.9 mm
09:15 PM 40.2°F4.6°C 35.8°F2.1°C 84% 19.1 mph NE30.7 kmh NE 38.0 mph61.2 kmh 29.60 in1002.4 mb 0.03 in0.8 mm 0.12 in3.0 mm 0.28 in7.1 mm
09:20 PM 40.3°F4.6°C 35.5°F1.9°C 83% 18.4 mph NE29.6 kmh NE 32.0 mph51.5 kmh 29.59 in1002.0 mb 0.04 in1.0 mm 0.12 in3.0 mm 0.28 in7.1 mm
09:25 PM 40.3°F4.6°C 35.8°F2.1°C 84% 18.1 mph NE29.1 kmh NE 32.0 mph51.5 kmh 29.60 in1002.4 mb 0.03 in0.8 mm 0.00 in0.0 mm 0.28 in7.1 mm
09:30 PM 40.3°F4.6°C 36.1°F2.3°C 85% 18.2 mph NE29.3 kmh NE 30.0 mph48.3 kmh 29.59 in1002.0 mb 0.04 in1.0 mm 0.12 in3.0 mm 0.29 in7.4 mm
09:35 PM 40.3°F4.6°C 35.8°F2.1°C 84% 18.5 mph NE29.8 kmh NE 34.0 mph54.7 kmh 29.59 in1002.0 mb 0.04 in1.0 mm 0.00 in0.0 mm 0.29 in7.4 mm
09:40 PM 40.4°F4.7°C 35.9°F2.2°C 84% 18.6 mph NE29.9 kmh NE 34.0 mph54.7 kmh 29.59 in1002.0 mb 0.04 in1.0 mm 0.00 in0.0 mm 0.29 in7.4 mm
09:45 PM 40.5°F4.7°C 35.7°F2.1°C 83% 18.1 mph NE29.1 kmh NE 29.0 mph46.7 kmh 29.59 in1002.0 mb 0.04 in1.0 mm 0.00 in0.0 mm 0.29 in7.4 mm
09:50 PM 40.5°F4.7°C 35.7°F2.1°C 83% 17.9 mph ENE28.8 kmh ENE 29.0 mph46.7 kmh 29.59 in1002.0 mb 0.04 in1.0 mm 0.00 in0.0 mm 0.30 in7.6 mm
09:55 PM 40.4°F4.7°C 35.6°F2.0°C 83% 18.3 mph NE29.5 kmh NE 30.0 mph48.3 kmh 29.59 in1002.0 mb 0.04 in1.0 mm 0.00 in0.0 mm 0.30 in7.6 mm
10:00 PM 40.5°F4.7°C 36.0°F2.2°C 84% 18.1 mph NE29.1 kmh NE 30.0 mph48.3 kmh 29.59 in1002.0 mb 0.03 in0.8 mm 0.00 in0.0 mm 0.30 in7.6 mm
10:05 PM 40.8°F4.9°C 35.7°F2.1°C 82% 16.6 mph NE26.7 kmh NE 33.0 mph53.1 kmh 29.59 in1002.0 mb 0.03 in0.8 mm 0.00 in0.0 mm 0.30 in7.6 mm
10:10 PM 40.9°F4.9°C 35.8°F2.1°C 82% 15.8 mph NE25.4 kmh NE 33.0 mph53.1 kmh 29.59 in1002.0 mb 0.03 in0.8 mm 0.00 in0.0 mm 0.31 in7.9 mm
10:15 PM 41.1°F5.1°C 35.7°F2.1°C 81% 16.4 mph NE26.4 kmh NE 29.0 mph46.7 kmh 29.59 in1002.0 mb 0.03 in0.8 mm 0.00 in0.0 mm 0.31 in7.9 mm
10:20 PM 41.3°F5.2°C 35.6°F2.0°C 80% 17.0 mph NE27.4 kmh NE 30.0 mph48.3 kmh 29.60 in1002.4 mb 0.02 in0.5 mm 0.00 in0.0 mm 0.31 in7.9 mm
10:25 PM 41.6°F5.3°C 35.6°F2.0°C 79% 17.5 mph NE28.2 kmh NE 31.0 mph49.9 kmh 29.60 in1002.4 mb 0.02 in0.5 mm 0.00 in0.0 mm 0.31 in7.9 mm
10:30 PM 42.0°F5.6°C 35.3°F1.8°C 77% 17.9 mph NE28.8 kmh NE 32.0 mph51.5 kmh 29.60 in1002.4 mb 0.02 in0.5 mm 0.00 in0.0 mm 0.31 in7.9 mm
10:35 PM 42.2°F5.7°C 35.2°F1.8°C 76% 18.5 mph NE29.8 kmh NE 36.0 mph57.9 kmh 29.60 in1002.4 mb 0.02 in0.5 mm 0.00 in0.0 mm 0.31 in7.9 mm
10:40 PM 42.6°F5.9°C 34.9°F1.6°C 74% 18.8 mph NE30.3 kmh NE 36.0 mph57.9 kmh 29.60 in1002.4 mb 0.02 in0.5 mm 0.00 in0.0 mm 0.31 in7.9 mm
10:45 PM 42.8°F6.0°C 34.7°F1.5°C 73% 17.6 mph NE28.3 kmh NE 27.0 mph43.5 kmh 29.60 in1002.4 mb 0.02 in0.5 mm 0.00 in0.0 mm 0.31 in7.9 mm
10:50 PM 42.8°F6.0°C 34.7°F1.5°C 73% 16.0 mph NE25.7 kmh NE 27.0 mph43.5 kmh 29.60 in1002.4 mb 0.01 in0.3 mm 0.00 in0.0 mm 0.31 in7.9 mm
10:55 PM 43.0°F6.1°C 34.6°F1.4°C 72% 15.1 mph NE24.3 kmh NE 29.0 mph46.7 kmh 29.60 in1002.4 mb 0.01 in0.3 mm 0.00 in0.0 mm 0.31 in7.9 mm
11:00 PM 43.3°F6.3°C 34.5°F1.4°C 71% 15.0 mph NE24.1 kmh NE 29.0 mph46.7 kmh 29.60 in1002.4 mb 0.01 in0.3 mm 0.00 in0.0 mm 0.31 in7.9 mm
11:05 PM 43.4°F6.3°C 34.3°F1.3°C 70% 15.5 mph NE24.9 kmh NE 27.0 mph43.5 kmh 29.60 in1002.4 mb 0.01 in0.3 mm 0.00 in0.0 mm 0.31 in7.9 mm
11:10 PM 43.6°F6.4°C 34.1°F1.2°C 69% 15.6 mph NE25.1 kmh NE 27.0 mph43.5 kmh 29.60 in1002.4 mb 0.00 in0.0 mm 0.00 in0.0 mm 0.31 in7.9 mm
11:15 PM 43.7°F6.5°C 34.2°F1.2°C 69% 15.5 mph NE24.9 kmh NE 27.0 mph43.5 kmh 29.60 in1002.4 mb 0.00 in0.0 mm 0.00 in0.0 mm 0.31 in7.9 mm
11:20 PM 43.7°F6.5°C 34.2°F1.2°C 69% 15.8 mph NE25.4 kmh NE 24.0 mph38.6 kmh 29.60 in1002.4 mb 0.00 in0.0 mm 0.00 in0.0 mm 0.31 in7.9 mm
11:25 PM 43.8°F6.6°C 33.9°F1.1°C 68% 15.2 mph NE24.5 kmh NE 27.0 mph43.5 kmh 29.60 in1002.4 mb 0.00 in0.0 mm 0.00 in0.0 mm 0.31 in7.9 mm
11:30 PM 43.9°F6.6°C 34.0°F1.1°C 68% 13.8 mph NE22.2 kmh NE 27.0 mph43.5 kmh 29.61 in1002.7 mb 0.00 in0.0 mm 0.00 in0.0 mm 0.31 in7.9 mm
11:35 PM 44.1°F6.7°C 34.2°F1.2°C 68% 13.1 mph ENE21.1 kmh ENE 26.0 mph41.8 kmh 29.61 in1002.7 mb 0.00 in0.0 mm 0.00 in0.0 mm 0.31 in7.9 mm
11:40 PM 44.3°F6.8°C 34.0°F1.1°C 67% 13.8 mph NE22.2 kmh NE 26.0 mph41.8 kmh 29.61 in1002.7 mb 0.00 in0.0 mm 0.00 in0.0 mm 0.31 in7.9 mm
11:45 PM 44.3°F6.8°C 34.4°F1.3°C 68% 14.5 mph NE23.3 kmh NE 25.0 mph40.2 kmh 29.61 in1002.7 mb 0.00 in0.0 mm 0.00 in0.0 mm 0.31 in7.9 mm
11:50 PM 44.3°F6.8°C 34.4°F1.3°C 68% 14.1 mph NE22.7 kmh NE 23.0 mph37.0 kmh 29.61 in1002.7 mb 0.00 in0.0 mm 0.00 in0.0 mm 0.31 in7.9 mm
11:55 PM 44.4°F6.9°C 34.5°F1.4°C 68% 12.8 mph NE20.6 kmh NE 24.0 mph38.6 kmh 29.61 in1002.7 mb 0.00 in0.0 mm 0.00 in0.0 mm 0.31 in7.9 mm